createdAt,value
2018-07-03T00:00:42.673Z,1005.25
2018-07-03T00:01:42.233Z,1005.26
2018-07-03T00:02:42.215Z,1005.23
2018-07-03T00:03:42.234Z,1005.26
2018-07-03T00:04:42.543Z,1005.28
2018-07-03T00:05:42.743Z,1005.3
2018-07-03T00:06:42.333Z,1005.27
2018-07-03T00:07:43.784Z,1005.28
2018-07-03T00:08:42.604Z,1005.27
2018-07-03T00:09:42.326Z,1005.25
2018-07-03T00:10:42.450Z,1005.24
2018-07-03T00:11:42.714Z,1005.24
2018-07-03T00:12:42.388Z,1005.23
2018-07-03T00:13:42.906Z,1005.21
2018-07-03T00:14:42.418Z,1005.22
2018-07-03T00:15:42.446Z,1005.26
2018-07-03T00:16:42.465Z,1005.25
2018-07-03T00:17:42.641Z,1005.28
2018-07-03T00:18:42.466Z,1005.36
2018-07-03T00:19:42.487Z,1005.44
2018-07-03T00:20:42.511Z,1005.49
2018-07-03T00:21:42.533Z,1005.53
2018-07-03T00:22:45.589Z,1005.46
2018-07-03T00:23:42.580Z,1005.5
2018-07-03T00:24:42.604Z,1005.49
2018-07-03T00:25:42.628Z,1005.43
2018-07-03T00:26:42.649Z,1005.5
2018-07-03T00:27:42.672Z,1005.5
2018-07-03T00:28:42.695Z,1005.51
2018-07-03T00:29:42.717Z,1005.54
2018-07-03T00:30:42.741Z,1005.52
2018-07-03T00:31:42.765Z,1005.51
2018-07-03T00:32:42.786Z,1005.52
2018-07-03T00:33:42.811Z,1005.54
2018-07-03T00:34:42.833Z,1005.55
2018-07-03T00:35:42.855Z,1005.55
2018-07-03T00:36:42.879Z,1005.5
2018-07-03T00:37:42.904Z,1005.48
2018-07-03T00:38:42.925Z,1005.48
2018-07-03T00:39:43.037Z,1005.5
2018-07-03T00:40:43.157Z,1005.51
2018-07-03T00:41:43.078Z,1005.51
2018-07-03T00:42:43.100Z,1005.5
2018-07-03T00:43:43.038Z,1005.46
2018-07-03T00:44:43.061Z,1005.45
2018-07-03T00:45:43.087Z,1005.45
2018-07-03T00:46:43.109Z,1005.44
2018-07-03T00:47:43.129Z,1005.48
2018-07-03T00:48:43.153Z,1005.48
2018-07-03T00:49:43.179Z,1005.47
2018-07-03T00:50:43.198Z,1005.43
2018-07-03T00:51:43.221Z,1005.44
2018-07-03T00:52:43.246Z,1005.43
2018-07-03T00:53:43.266Z,1005.38
2018-07-03T00:54:43.289Z,1005.41
2018-07-03T00:55:43.312Z,1005.42
2018-07-03T00:56:43.335Z,1005.41
2018-07-03T00:57:43.358Z,1005.37
2018-07-03T00:58:43.380Z,1005.4
2018-07-03T00:59:43.402Z,1005.42
2018-07-03T01:00:43.433Z,1005.41
2018-07-03T01:01:43.446Z,1005.43
2018-07-03T01:02:43.469Z,1005.41
2018-07-03T01:03:43.493Z,1005.4
2018-07-03T01:04:43.516Z,1005.36
2018-07-03T01:05:43.538Z,1005.38
2018-07-03T01:06:43.562Z,1005.42
2018-07-03T01:07:43.584Z,1005.38
2018-07-03T01:08:43.608Z,1005.42
2018-07-03T01:09:43.628Z,1005.42
2018-07-03T01:10:43.650Z,1005.42
2018-07-03T01:11:43.677Z,1005.41
2018-07-03T01:12:43.694Z,1005.37
2018-07-03T01:13:43.721Z,1005.35
2018-07-03T01:14:43.740Z,1005.37
2018-07-03T01:15:43.763Z,1005.33
2018-07-03T01:16:43.785Z,1005.36
2018-07-03T01:17:43.814Z,1005.35
2018-07-03T01:18:43.830Z,1005.36
2018-07-03T01:19:43.853Z,1005.42
2018-07-03T01:20:43.873Z,1005.42
2018-07-03T01:21:43.900Z,1005.41
2018-07-03T01:22:43.921Z,1005.38
2018-07-03T01:23:43.941Z,1005.39
2018-07-03T01:24:43.964Z,1005.41
2018-07-03T01:25:43.986Z,1005.4
2018-07-03T01:26:44.009Z,1005.35
2018-07-03T01:27:44.031Z,1005.38
2018-07-03T01:28:44.055Z,1005.37
2018-07-03T01:29:44.076Z,1005.34
2018-07-03T01:30:44.100Z,1005.36
2018-07-03T01:31:44.121Z,1005.35
2018-07-03T01:32:44.144Z,1005.32
2018-07-03T01:33:44.164Z,1005.3
2018-07-03T01:34:44.191Z,1005.33
2018-07-03T01:35:44.209Z,1005.32
2018-07-03T01:36:44.233Z,1005.33
2018-07-03T01:37:44.254Z,1005.3
2018-07-03T01:38:44.275Z,1005.31
2018-07-03T01:39:44.299Z,1005.34
2018-07-03T01:40:44.320Z,1005.33
2018-07-03T01:41:44.343Z,1005.39
2018-07-03T01:42:44.364Z,1005.43
2018-07-03T01:43:44.387Z,1005.37
2018-07-03T01:44:44.409Z,1005.44
2018-07-03T01:45:44.430Z,1005.44
2018-07-03T01:46:44.454Z,1005.45
2018-07-03T01:47:44.475Z,1005.46
2018-07-03T01:48:44.498Z,1005.43
2018-07-03T01:49:44.520Z,1005.46
2018-07-03T01:50:44.541Z,1005.53
2018-07-03T01:51:44.567Z,1005.46
2018-07-03T01:52:44.586Z,1005.49
2018-07-03T01:53:44.610Z,1005.44
2018-07-03T01:54:44.628Z,1005.47
2018-07-03T01:55:44.652Z,1005.43
2018-07-03T01:56:44.676Z,1005.45
2018-07-03T01:57:44.699Z,1005.46
2018-07-03T01:58:44.718Z,1005.52
2018-07-03T01:59:44.744Z,1005.53
2018-07-03T02:00:44.761Z,1005.51
2018-07-03T02:01:44.784Z,1005.5
2018-07-03T02:02:44.807Z,1005.51
2018-07-03T02:03:44.829Z,1005.49
2018-07-03T02:04:44.849Z,1005.48
2018-07-03T02:05:44.874Z,1005.49
2018-07-03T02:06:44.895Z,1005.44
2018-07-03T02:07:44.925Z,1005.46
2018-07-03T02:08:44.938Z,1005.43
2018-07-03T02:09:44.960Z,1005.42
2018-07-03T02:10:44.981Z,1005.4
2018-07-03T02:11:45.003Z,1005.42
2018-07-03T02:12:45.029Z,1005.43
2018-07-03T02:13:45.047Z,1005.4
2018-07-03T02:14:45.068Z,1005.41
2018-07-03T02:15:45.090Z,1005.4
2018-07-03T02:16:45.112Z,1005.36
2018-07-03T02:17:45.140Z,1005.44
2018-07-03T02:18:45.155Z,1005.46
2018-07-03T02:19:45.176Z,1005.38
2018-07-03T02:20:45.200Z,1005.38
2018-07-03T02:21:45.226Z,1005.37
2018-07-03T02:22:45.247Z,1005.35
2018-07-03T02:23:45.264Z,1005.36
2018-07-03T02:24:45.316Z,1005.36
2018-07-03T02:25:45.306Z,1005.32
2018-07-03T02:26:45.329Z,1005.33
2018-07-03T02:27:45.352Z,1005.36
2018-07-03T02:28:45.375Z,1005.37
2018-07-03T02:29:45.393Z,1005.36
2018-07-03T02:30:45.425Z,1005.38
2018-07-03T02:31:45.440Z,1005.35
2018-07-03T02:32:45.459Z,1005.35
2018-07-03T02:33:45.481Z,1005.35
2018-07-03T02:34:45.502Z,1005.31
2018-07-03T02:35:45.525Z,1005.34
2018-07-03T02:36:45.545Z,1005.33
2018-07-03T02:37:45.576Z,1005.29
2018-07-03T02:38:45.590Z,1005.29
2018-07-03T02:39:45.611Z,1005.32
2018-07-03T02:40:45.631Z,1005.3
2018-07-03T02:41:45.654Z,1005.25
2018-07-03T02:42:45.676Z,1005.26
2018-07-03T02:43:45.697Z,1005.3
2018-07-03T02:44:45.718Z,1005.33
2018-07-03T02:45:45.738Z,1005.36
2018-07-03T02:46:45.767Z,1005.32
2018-07-03T02:47:45.786Z,1005.31
2018-07-03T02:48:45.805Z,1005.29
2018-07-03T02:49:45.862Z,1005.3
2018-07-03T02:50:45.850Z,1005.31
2018-07-03T02:51:45.873Z,1005.28
2018-07-03T02:52:45.891Z,1005.27
2018-07-03T02:53:45.911Z,1005.28
2018-07-03T02:54:45.933Z,1005.3
2018-07-03T02:55:45.954Z,1005.3
2018-07-03T02:56:45.975Z,1005.24
2018-07-03T02:57:45.999Z,1005.27
2018-07-03T02:58:46.017Z,1005.3
2018-07-03T02:59:46.040Z,1005.26
2018-07-03T03:00:46.062Z,1005.32
2018-07-03T03:01:46.083Z,1005.33
2018-07-03T03:02:46.103Z,1005.3
2018-07-03T03:03:46.126Z,1005.31
2018-07-03T03:04:46.147Z,1005.26
2018-07-03T03:05:46.169Z,1005.25
2018-07-03T03:06:46.190Z,1005.24
2018-07-03T03:07:46.210Z,1005.25
2018-07-03T03:08:46.232Z,1005.24
2018-07-03T03:09:46.253Z,1005.24
2018-07-03T03:10:46.276Z,1005.21
2018-07-03T03:11:46.300Z,1005.22
2018-07-03T03:12:46.319Z,1005.22
2018-07-03T03:13:46.339Z,1005.26
2018-07-03T03:14:46.359Z,1005.28
2018-07-03T03:15:46.382Z,1005.27
2018-07-03T03:16:46.403Z,1005.21
2018-07-03T03:17:46.423Z,1005.23
2018-07-03T03:18:46.446Z,1005.23
2018-07-03T03:19:46.467Z,1005.23
2018-07-03T03:20:46.489Z,1005.23
2018-07-03T03:21:46.510Z,1005.24
2018-07-03T03:22:46.536Z,1005.21
2018-07-03T03:23:46.558Z,1005.2
2018-07-03T03:24:46.580Z,1005.24
2018-07-03T03:25:46.596Z,1005.2
2018-07-03T03:26:46.616Z,1005.21
2018-07-03T03:27:46.636Z,1005.25
2018-07-03T03:28:46.658Z,1005.22
2018-07-03T03:29:46.678Z,1005.22
2018-07-03T03:30:46.705Z,1005.22
2018-07-03T03:31:46.771Z,1005.22
2018-07-03T03:32:46.743Z,1005.21
2018-07-03T03:33:46.766Z,1005.2
2018-07-03T03:34:46.785Z,1005.22
2018-07-03T03:35:46.805Z,1005.24
2018-07-03T03:36:46.828Z,1005.24
2018-07-03T03:37:46.848Z,1005.25
2018-07-03T03:38:46.869Z,1005.27
2018-07-03T03:39:46.891Z,1005.28
2018-07-03T03:40:46.912Z,1005.29
2018-07-03T03:41:46.934Z,1005.28
2018-07-03T03:42:46.953Z,1005.27
2018-07-03T03:43:46.975Z,1005.29
2018-07-03T03:44:46.997Z,1005.32
2018-07-03T03:45:47.017Z,1005.31
2018-07-03T03:46:47.039Z,1005.32
2018-07-03T03:47:47.058Z,1005.34
2018-07-03T03:48:47.080Z,1005.37
2018-07-03T03:49:47.101Z,1005.37
2018-07-03T03:50:47.123Z,1005.37
2018-07-03T03:51:47.143Z,1005.43
2018-07-03T03:52:47.165Z,1005.4
2018-07-03T03:53:47.240Z,1005.4
2018-07-03T03:54:47.207Z,1005.4
2018-07-03T03:55:47.229Z,1005.41
2018-07-03T03:56:47.253Z,1005.41
2018-07-03T03:57:47.269Z,1005.41
2018-07-03T03:58:47.289Z,1005.43
2018-07-03T03:59:47.312Z,1005.44
2018-07-03T04:00:47.349Z,1005.49
2018-07-03T04:01:47.354Z,1005.47
2018-07-03T04:02:47.375Z,1005.48
2018-07-03T04:03:47.403Z,1005.46
2018-07-03T04:04:47.416Z,1005.45
2018-07-03T04:05:47.436Z,1005.48
2018-07-03T04:06:47.463Z,1005.5
2018-07-03T04:07:47.479Z,1005.51
2018-07-03T04:08:47.499Z,1005.49
2018-07-03T04:09:47.522Z,1005.47
2018-07-03T04:10:47.542Z,1005.44
2018-07-03T04:11:47.563Z,1005.52
2018-07-03T04:12:47.585Z,1005.48
2018-07-03T04:13:47.607Z,1005.51
2018-07-03T04:14:47.625Z,1005.52
2018-07-03T04:15:47.646Z,1005.5
2018-07-03T04:16:47.667Z,1005.55
2018-07-03T04:17:47.689Z,1005.56
2018-07-03T04:18:47.710Z,1005.52
2018-07-03T04:19:47.730Z,1005.56
2018-07-03T04:20:47.751Z,1005.55
2018-07-03T04:21:47.773Z,1005.56
2018-07-03T04:22:47.791Z,1005.59
2018-07-03T04:23:47.814Z,1005.57
2018-07-03T04:24:47.834Z,1005.61
2018-07-03T04:25:47.855Z,1005.62
2018-07-03T04:26:47.877Z,1005.61
2018-07-03T04:27:47.896Z,1005.6
2018-07-03T04:28:47.917Z,1005.61
2018-07-03T04:29:47.938Z,1005.66
2018-07-03T04:30:47.959Z,1005.66
2018-07-03T04:31:47.980Z,1005.64
2018-07-03T04:32:48.000Z,1005.66
2018-07-03T04:33:48.021Z,1005.71
2018-07-03T04:34:48.041Z,1005.7
2018-07-03T04:35:48.062Z,1005.71
2018-07-03T04:36:48.084Z,1005.74
2018-07-03T04:37:48.103Z,1005.75
2018-07-03T04:38:48.124Z,1005.74
2018-07-03T04:39:48.144Z,1005.74
2018-07-03T04:40:48.167Z,1005.74
2018-07-03T04:41:48.185Z,1005.72
2018-07-03T04:42:48.208Z,1005.71
2018-07-03T04:43:48.230Z,1005.7
2018-07-03T04:44:48.250Z,1005.72
2018-07-03T04:45:48.269Z,1005.7
2018-07-03T04:46:48.353Z,1005.71
2018-07-03T04:47:48.315Z,1005.76
2018-07-03T04:48:48.330Z,1005.74
2018-07-03T04:49:48.352Z,1005.79
2018-07-03T04:50:48.373Z,1005.81
2018-07-03T04:51:48.399Z,1005.78
2018-07-03T04:52:48.415Z,1005.81
2018-07-03T04:53:48.438Z,1005.82
2018-07-03T04:54:48.458Z,1005.85
2018-07-03T04:55:48.477Z,1005.89
2018-07-03T04:56:48.498Z,1005.85
2018-07-03T04:57:48.620Z,1005.79
2018-07-03T04:58:48.541Z,1005.82
2018-07-03T04:59:48.562Z,1005.79
2018-07-03T05:00:48.580Z,1005.81
2018-07-03T05:01:48.602Z,1005.82
2018-07-03T05:02:48.623Z,1005.84
2018-07-03T05:03:48.645Z,1005.89
2018-07-03T05:04:48.666Z,1005.86
2018-07-03T05:05:48.685Z,1005.91
2018-07-03T05:06:48.706Z,1005.86
2018-07-03T05:07:48.725Z,1005.91
2018-07-03T05:08:48.747Z,1005.95
2018-07-03T05:09:48.766Z,1005.95
2018-07-03T05:10:48.787Z,1005.94
2018-07-03T05:11:48.810Z,1005.92
2018-07-03T05:12:48.879Z,1005.92
2018-07-03T05:13:48.850Z,1005.97
2018-07-03T05:14:48.868Z,1005.93
2018-07-03T05:15:48.893Z,1005.97
2018-07-03T05:16:48.912Z,1005.96
2018-07-03T05:17:48.931Z,1005.98
2018-07-03T05:18:48.953Z,1005.96
2018-07-03T05:19:48.972Z,1005.99
2018-07-03T05:20:48.995Z,1005.96
2018-07-03T05:21:49.014Z,1005.95
2018-07-03T05:22:49.034Z,1005.98
2018-07-03T05:23:49.057Z,1005.92
2018-07-03T05:24:49.077Z,1005.98
2018-07-03T05:25:49.098Z,1005.93
2018-07-03T05:26:49.118Z,1005.91
2018-07-03T05:27:49.140Z,1005.98
2018-07-03T05:28:49.159Z,1005.96
2018-07-03T05:29:49.182Z,1006.01
2018-07-03T05:30:49.202Z,1006.04
2018-07-03T05:31:49.223Z,1006.03
2018-07-03T05:32:49.241Z,1006.02
2018-07-03T05:33:49.263Z,1006.01
2018-07-03T05:34:49.283Z,1006.03
2018-07-03T05:35:49.303Z,1006.06
2018-07-03T05:36:49.324Z,1006.04
2018-07-03T05:37:49.346Z,1006.06
2018-07-03T05:38:49.366Z,1006.05
2018-07-03T05:39:49.427Z,1006.05
2018-07-03T05:40:49.408Z,1006.06
2018-07-03T05:41:49.427Z,1006.01
2018-07-03T05:42:49.468Z,1006.01
2018-07-03T05:43:49.469Z,1006.06
2018-07-03T05:44:49.489Z,1006.05
2018-07-03T05:45:49.511Z,1006.07
2018-07-03T05:46:49.531Z,1006.1
2018-07-03T05:47:49.550Z,1006.12
2018-07-03T05:48:49.572Z,1006.15
2018-07-03T05:49:49.592Z,1006.11
2018-07-03T05:50:49.613Z,1006.08
2018-07-03T05:51:49.633Z,1006.1
2018-07-03T05:52:49.655Z,1006.07
2018-07-03T05:53:49.676Z,1006.12
2018-07-03T05:54:49.696Z,1006.11
2018-07-03T05:55:49.719Z,1006.13
2018-07-03T05:56:49.738Z,1006.12
2018-07-03T05:57:49.759Z,1006.13
2018-07-03T05:58:49.778Z,1006.13
2018-07-03T05:59:49.798Z,1006.16
2018-07-03T06:00:49.819Z,1006.16
2018-07-03T06:01:49.839Z,1006.18
2018-07-03T06:02:49.862Z,1006.17
2018-07-03T06:03:49.928Z,1006.17
2018-07-03T06:04:49.905Z,1006.12
2018-07-03T06:05:49.923Z,1006.14
2018-07-03T06:06:49.943Z,1006.18
2018-07-03T06:07:49.964Z,1006.15
2018-07-03T06:08:49.984Z,1006.2
2018-07-03T06:09:50.006Z,1006.16
2018-07-03T06:10:50.026Z,1006.16
2018-07-03T06:11:50.050Z,1006.14
2018-07-03T06:12:50.116Z,1006.08
2018-07-03T06:13:50.093Z,1006.12
2018-07-03T06:14:50.170Z,1006.17
2018-07-03T06:15:50.130Z,1006.1
2018-07-03T06:16:50.148Z,1006.15
2018-07-03T06:17:50.170Z,1006.14
2018-07-03T06:18:50.191Z,1006.12
2018-07-03T06:19:50.228Z,1006.09
2018-07-03T06:20:50.232Z,1006.14
2018-07-03T06:21:50.252Z,1006.12
2018-07-03T06:22:50.291Z,1006.11
2018-07-03T06:23:50.293Z,1006.15
2018-07-03T06:24:50.314Z,1006.12
2018-07-03T06:25:50.335Z,1006.12
2018-07-03T06:26:50.356Z,1006.15
2018-07-03T06:27:50.380Z,1006.14
2018-07-03T06:28:50.484Z,1006.13
2018-07-03T06:29:50.418Z,1006.14
2018-07-03T06:30:50.440Z,1006.08
2018-07-03T06:31:50.460Z,1006.07
2018-07-03T06:32:50.480Z,1006.11
2018-07-03T06:33:50.501Z,1006.1
2018-07-03T06:34:50.552Z,1006.11
2018-07-03T06:35:50.551Z,1006.12
2018-07-03T06:36:50.571Z,1006.11
2018-07-03T06:37:50.584Z,1006.11
2018-07-03T06:38:50.606Z,1006.1
2018-07-03T06:39:50.625Z,1006.11
2018-07-03T06:40:50.647Z,1006.11
2018-07-03T06:41:50.667Z,1006.11
2018-07-03T06:42:50.686Z,1006.12
2018-07-03T06:43:50.707Z,1006.08
2018-07-03T06:44:50.745Z,1006.07
2018-07-03T06:45:50.749Z,1006.09
2018-07-03T06:46:50.773Z,1006.09
2018-07-03T06:47:50.790Z,1006.08
2018-07-03T06:48:50.809Z,1006.07
2018-07-03T06:49:50.831Z,1006.08
2018-07-03T06:50:50.853Z,1006.09
2018-07-03T06:51:50.931Z,1006.1
2018-07-03T06:52:50.929Z,1006.07
2018-07-03T06:53:50.917Z,1006.09
2018-07-03T06:54:50.938Z,1006.05
2018-07-03T06:55:50.957Z,1006.07
2018-07-03T06:56:50.977Z,1006.1
2018-07-03T06:57:51.018Z,1006.15
2018-07-03T06:58:51.020Z,1006.13
2018-07-03T06:59:51.038Z,1006.11
2018-07-03T07:00:51.058Z,1006.07
2018-07-03T07:01:51.080Z,1006.08
2018-07-03T07:02:51.102Z,1006.1
2018-07-03T07:03:51.125Z,1006.06
2018-07-03T07:04:51.143Z,1006.03
2018-07-03T07:05:51.167Z,1006.05
2018-07-03T07:06:51.185Z,1006.04
2018-07-03T07:07:51.205Z,1006.03
2018-07-03T07:08:51.314Z,1006.06
2018-07-03T07:09:51.247Z,1006.09
2018-07-03T07:10:51.268Z,1006.09
2018-07-03T07:11:51.290Z,1006.12
2018-07-03T07:12:51.311Z,1006.11
2018-07-03T07:13:51.330Z,1006.1
2018-07-03T07:14:51.355Z,1006.1
2018-07-03T07:15:51.374Z,1006.11
2018-07-03T07:16:51.394Z,1006.13
2018-07-03T07:17:51.416Z,1006.07
2018-07-03T07:18:51.436Z,1006.06
2018-07-03T07:19:51.457Z,1006.13
2018-07-03T07:20:51.483Z,1006.07
2018-07-03T07:21:51.498Z,1006.09
2018-07-03T07:22:51.519Z,1006.08
2018-07-03T07:23:51.542Z,1006.08
2018-07-03T07:24:51.562Z,1006.08
2018-07-03T07:25:51.582Z,1006.08
2018-07-03T07:26:51.605Z,1006.09
2018-07-03T07:27:51.640Z,1006.05
2018-07-03T07:28:51.649Z,1006.05
2018-07-03T07:29:51.667Z,1006.04
2018-07-03T07:30:51.688Z,1006.02
2018-07-03T07:31:51.709Z,1006.04
2018-07-03T07:32:51.731Z,1006.03
2018-07-03T07:33:51.750Z,1006.05
2018-07-03T07:34:51.773Z,1006.03
2018-07-03T07:35:51.814Z,1006.01
2018-07-03T07:36:51.819Z,1006.02
2018-07-03T07:37:51.836Z,1006.01
2018-07-03T07:38:51.857Z,1005.99
2018-07-03T07:39:51.879Z,1005.99
2018-07-03T07:40:51.901Z,1005.95
2018-07-03T07:41:51.922Z,1005.95
2018-07-03T07:42:51.944Z,1005.93
2018-07-03T07:43:51.964Z,1005.93
2018-07-03T07:44:51.987Z,1005.92
2018-07-03T07:45:52.009Z,1005.91
2018-07-03T07:46:52.030Z,1005.91
2018-07-03T07:47:52.057Z,1005.92
2018-07-03T07:48:52.076Z,1005.91
2018-07-03T07:49:52.093Z,1005.9
2018-07-03T07:50:52.119Z,1005.91
2018-07-03T07:51:52.135Z,1005.9
2018-07-03T07:52:52.158Z,1005.88
2018-07-03T07:53:52.179Z,1005.89
2018-07-03T07:54:52.222Z,1005.86
2018-07-03T07:55:52.230Z,1005.86
2018-07-03T07:56:52.244Z,1005.85
2018-07-03T07:57:52.270Z,1005.87
2018-07-03T07:58:52.289Z,1005.85
2018-07-03T07:59:52.308Z,1005.88
2018-07-03T08:00:52.330Z,1005.91
2018-07-03T08:01:52.352Z,1005.88
2018-07-03T08:02:52.377Z,1005.84
2018-07-03T08:03:52.399Z,1005.87
2018-07-03T08:04:52.419Z,1005.83
2018-07-03T08:05:52.439Z,1005.85
2018-07-03T08:06:52.467Z,1005.82
2018-07-03T08:07:52.484Z,1005.84
2018-07-03T08:08:52.507Z,1005.84
2018-07-03T08:09:52.529Z,1005.87
2018-07-03T08:10:52.556Z,1005.89
2018-07-03T08:11:52.573Z,1005.89
2018-07-03T08:12:52.598Z,1005.86
2018-07-03T08:13:52.618Z,1005.83
2018-07-03T08:14:52.643Z,1005.82
2018-07-03T08:15:52.660Z,1005.8
2018-07-03T08:16:52.681Z,1005.83
2018-07-03T08:17:52.718Z,1005.83
2018-07-03T08:18:52.731Z,1005.83
2018-07-03T08:19:52.751Z,1005.79
2018-07-03T08:20:52.772Z,1005.84
2018-07-03T08:21:52.796Z,1005.8
2018-07-03T08:22:52.819Z,1005.79
2018-07-03T08:23:52.841Z,1005.8
2018-07-03T08:24:52.864Z,1005.81
2018-07-03T08:25:52.887Z,1005.81
2018-07-03T08:26:52.925Z,1005.79
2018-07-03T08:27:52.932Z,1005.8
2018-07-03T08:28:53.021Z,1005.81
2018-07-03T08:29:53.030Z,1005.85
2018-07-03T08:30:53.026Z,1005.83
2018-07-03T08:31:53.032Z,1005.82
2018-07-03T08:32:53.049Z,1005.81
2018-07-03T08:33:53.069Z,1005.81
2018-07-03T08:34:53.099Z,1005.78
2018-07-03T08:35:53.172Z,1005.78
2018-07-03T08:36:53.199Z,1005.76
2018-07-03T08:37:53.241Z,1005.78
2018-07-03T08:38:53.179Z,1005.77
2018-07-03T08:39:53.209Z,1005.74
2018-07-03T08:40:53.277Z,1005.73
2018-07-03T08:41:53.300Z,1005.79
2018-07-03T08:42:53.346Z,1005.79
2018-07-03T08:43:53.349Z,1005.78
2018-07-03T08:44:53.420Z,1005.78
2018-07-03T08:45:53.357Z,1005.8
2018-07-03T08:46:53.366Z,1005.77
2018-07-03T08:47:53.759Z,1005.75
2018-07-03T08:48:53.469Z,1005.73
2018-07-03T08:49:53.535Z,1005.79
2018-07-03T08:50:53.462Z,1005.79
2018-07-03T08:51:53.609Z,1005.79
2018-07-03T08:52:53.553Z,1005.73
2018-07-03T08:53:53.534Z,1005.72
2018-07-03T08:54:53.558Z,1005.7
2018-07-03T08:55:53.579Z,1005.72
2018-07-03T08:56:53.606Z,1005.68
2018-07-03T08:57:53.625Z,1005.71
2018-07-03T08:58:53.651Z,1005.69
2018-07-03T08:59:53.672Z,1005.67
2018-07-03T09:00:53.755Z,1005.67
2018-07-03T09:01:53.728Z,1005.68
2018-07-03T09:02:53.747Z,1005.66
2018-07-03T09:03:53.836Z,1005.65
2018-07-03T09:04:53.793Z,1005.69
2018-07-03T09:05:53.821Z,1005.66
2018-07-03T09:06:53.847Z,1005.66
2018-07-03T09:07:53.866Z,1005.66
2018-07-03T09:08:53.890Z,1005.65
2018-07-03T09:09:53.916Z,1005.7
2018-07-03T09:10:53.940Z,1005.68
2018-07-03T09:11:53.967Z,1005.64
2018-07-03T09:12:53.988Z,1005.69
2018-07-03T09:13:54.018Z,1005.67
2018-07-03T09:14:54.043Z,1005.66
2018-07-03T09:15:54.063Z,1005.63
2018-07-03T09:16:54.088Z,1005.63
2018-07-03T09:17:54.151Z,1005.61
2018-07-03T09:18:54.136Z,1005.62
2018-07-03T09:19:54.162Z,1005.61
2018-07-03T09:20:54.187Z,1005.63
2018-07-03T09:21:54.221Z,1005.63
2018-07-03T09:22:54.239Z,1005.66
2018-07-03T09:23:54.265Z,1005.67
2018-07-03T09:24:54.286Z,1005.66
2018-07-03T09:25:54.322Z,1005.64
2018-07-03T09:26:54.337Z,1005.64
2018-07-03T09:27:54.362Z,1005.61
2018-07-03T09:28:54.388Z,1005.61
2018-07-03T09:29:54.412Z,1005.59
2018-07-03T09:30:54.440Z,1005.56
2018-07-03T09:31:54.465Z,1005.55
2018-07-03T09:32:54.491Z,1005.61
2018-07-03T09:33:54.520Z,1005.6
2018-07-03T09:34:54.542Z,1005.6
2018-07-03T09:35:54.571Z,1005.62
2018-07-03T09:36:54.593Z,1005.55
2018-07-03T09:37:54.624Z,1005.57
2018-07-03T09:38:54.645Z,1005.56
2018-07-03T09:39:54.671Z,1005.56
2018-07-03T09:40:54.697Z,1005.55
2018-07-03T09:41:54.724Z,1005.54
2018-07-03T09:42:54.749Z,1005.57
2018-07-03T09:43:54.775Z,1005.52
2018-07-03T09:44:54.801Z,1005.51
2018-07-03T09:45:54.827Z,1005.51
2018-07-03T09:46:54.855Z,1005.48
2018-07-03T09:47:54.879Z,1005.51
2018-07-03T09:48:54.991Z,1005.47
2018-07-03T09:49:54.933Z,1005.49
2018-07-03T09:50:54.959Z,1005.49
2018-07-03T09:51:54.985Z,1005.48
2018-07-03T09:52:55.012Z,1005.49
2018-07-03T09:53:55.042Z,1005.52
2018-07-03T09:54:55.090Z,1005.53
2018-07-03T09:55:55.313Z,1005.5
2018-07-03T09:56:55.255Z,1005.52
2018-07-03T09:57:55.277Z,1005.47
2018-07-03T09:58:55.203Z,1005.45
2018-07-03T09:59:55.207Z,1005.46
2018-07-03T10:00:55.227Z,1005.45
2018-07-03T10:01:55.258Z,1005.39
2018-07-03T10:02:55.280Z,1005.45
2018-07-03T10:03:55.310Z,1005.43
2018-07-03T10:04:55.336Z,1005.44
2018-07-03T10:05:55.362Z,1005.38
2018-07-03T10:06:55.391Z,1005.38
2018-07-03T10:07:55.417Z,1005.4
2018-07-03T10:08:55.487Z,1005.34
2018-07-03T10:09:55.470Z,1005.36
2018-07-03T10:10:55.499Z,1005.34
2018-07-03T10:11:55.530Z,1005.35
2018-07-03T10:12:55.570Z,1005.33
2018-07-03T10:13:55.581Z,1005.34
2018-07-03T10:14:55.609Z,1005.31
2018-07-03T10:15:55.641Z,1005.34
2018-07-03T10:16:55.666Z,1005.33
2018-07-03T10:17:55.693Z,1005.32
2018-07-03T10:18:55.784Z,1005.37
2018-07-03T10:19:55.749Z,1005.3
2018-07-03T10:20:55.777Z,1005.3
2018-07-03T10:21:55.809Z,1005.35
2018-07-03T10:22:55.832Z,1005.34
2018-07-03T10:23:55.863Z,1005.36
2018-07-03T10:24:55.889Z,1005.37
2018-07-03T10:25:55.917Z,1005.37
2018-07-03T10:26:55.949Z,1005.44
2018-07-03T10:27:55.975Z,1005.36
2018-07-03T10:28:56.002Z,1005.33
2018-07-03T10:29:56.031Z,1005.31
2018-07-03T10:30:56.069Z,1005.33
2018-07-03T10:31:56.090Z,1005.33
2018-07-03T10:32:56.120Z,1005.31
2018-07-03T10:33:56.147Z,1005.31
2018-07-03T10:34:56.178Z,1005.35
2018-07-03T10:35:56.202Z,1005.35
2018-07-03T10:36:56.232Z,1005.37
2018-07-03T10:37:56.265Z,1005.36
2018-07-03T10:38:56.290Z,1005.33
2018-07-03T10:39:56.318Z,1005.31
2018-07-03T10:40:56.348Z,1005.28
2018-07-03T10:41:56.377Z,1005.3
2018-07-03T10:42:56.439Z,1005.28
2018-07-03T10:43:56.434Z,1005.27
2018-07-03T10:44:56.463Z,1005.25
2018-07-03T10:45:56.501Z,1005.3
2018-07-03T10:46:56.522Z,1005.25
2018-07-03T10:47:56.551Z,1005.27
2018-07-03T10:48:56.581Z,1005.24
2018-07-03T10:49:56.612Z,1005.24
2018-07-03T10:50:56.640Z,1005.21
2018-07-03T10:51:56.669Z,1005.17
2018-07-03T10:52:56.700Z,1005.16
2018-07-03T10:53:56.729Z,1005.1
2018-07-03T10:54:56.759Z,1005.13
2018-07-03T10:55:56.791Z,1005.11
2018-07-03T10:56:56.841Z,1005.11
2018-07-03T10:57:56.859Z,1005.13
2018-07-03T10:58:56.889Z,1005.12
2018-07-03T10:59:57.117Z,1005.1
2018-07-03T11:00:56.942Z,1005.12
2018-07-03T11:01:56.968Z,1005.09
2018-07-03T11:02:57.077Z,1005.1
2018-07-03T11:03:57.042Z,1005.07
2018-07-03T11:04:57.065Z,1005.09
2018-07-03T11:05:57.094Z,1005.12
2018-07-03T11:06:57.129Z,1005.1
2018-07-03T11:07:57.156Z,1005.1
2018-07-03T11:08:57.187Z,1005.09
2018-07-03T11:09:57.217Z,1005.11
2018-07-03T11:10:57.247Z,1005.12
2018-07-03T11:11:57.364Z,1005.09
2018-07-03T11:12:57.309Z,1005.05
2018-07-03T11:13:57.445Z,1005.01
2018-07-03T11:14:57.371Z,1005.05
2018-07-03T11:15:57.412Z,1005.07
2018-07-03T11:16:57.492Z,1005.02
2018-07-03T11:17:57.467Z,1005.06
2018-07-03T11:18:57.502Z,1005.06
2018-07-03T11:19:57.617Z,1005.07
2018-07-03T11:20:57.566Z,1005.07
2018-07-03T11:21:57.606Z,1005.04
2018-07-03T11:22:57.687Z,1005.08
2018-07-03T11:23:57.658Z,1005.08
2018-07-03T11:24:57.679Z,1005.08
2018-07-03T11:25:57.768Z,1005.11
2018-07-03T11:26:57.797Z,1005.12
2018-07-03T11:27:57.777Z,1005.1
2018-07-03T11:28:57.854Z,1005.09
2018-07-03T11:29:57.857Z,1005.12
2018-07-03T11:30:57.878Z,1005.09
2018-07-03T11:31:57.924Z,1005.06
2018-07-03T11:32:57.948Z,1005.08
2018-07-03T11:33:57.964Z,1005.07
2018-07-03T11:34:58.001Z,1005.1
2018-07-03T11:35:58.032Z,1005.11
2018-07-03T11:36:58.066Z,1005.06
2018-07-03T11:37:58.096Z,1005.05
2018-07-03T11:38:58.135Z,1005.08
2018-07-03T11:39:58.163Z,1005.08
2018-07-03T11:40:58.212Z,1005.06
2018-07-03T11:41:58.232Z,1005.06
2018-07-03T11:42:58.309Z,1005.04
2018-07-03T11:43:58.302Z,1005.01
2018-07-03T11:44:58.332Z,1005.03
2018-07-03T11:45:58.372Z,1005.09
2018-07-03T11:46:58.412Z,1005.09
2018-07-03T11:47:58.421Z,1005.11
2018-07-03T11:48:58.454Z,1005.07
2018-07-03T11:49:58.479Z,1005.12
2018-07-03T11:50:58.512Z,1005.1
2018-07-03T11:51:58.551Z,1005.1
2018-07-03T11:52:58.581Z,1005.1
2018-07-03T11:53:58.629Z,1005.07
2018-07-03T11:54:58.644Z,1005.04
2018-07-03T11:55:58.678Z,1005.03
2018-07-03T11:56:58.713Z,1005.03
2018-07-03T11:57:58.753Z,1005.06
2018-07-03T11:58:58.777Z,1005.03
2018-07-03T11:59:58.810Z,1004.98
2018-07-03T12:00:58.846Z,1005
2018-07-03T12:01:58.874Z,1004.98
2018-07-03T12:02:58.908Z,1004.97
2018-07-03T12:03:58.940Z,1004.96
2018-07-03T12:04:58.973Z,1004.97
2018-07-03T12:05:59.008Z,1005.05
2018-07-03T12:06:59.046Z,1005.01
2018-07-03T12:07:59.074Z,1004.98
2018-07-03T12:08:59.107Z,1004.95